CheckWX is a tool to help pilots better visualize weather data.  It is not intended as a substitute for an official pre-flight weather briefing.

18:02:18 UTC

ESGJ TAF
Jönköping Airport
Jönköping, Sweden
TAF ESGJ 241730Z 2418/2421 25012KT 9999 -RA FEW030 BKN040 PROB40 2418/2421 2000 SHRA BR BKN004

Mar-24@
18:00 UTC

Mar-24 @ 18:00 UTC

Mar-24@
21:00 UTC

Mar-24 @ 21:00 UTC

TAF ESGJ 241730Z 2418/2421 25012KT 9999 -RA FEW030 BKN040
Wind
  • 250° at 12 KTS
Conditions
Light Rain
Cloud Levels
  • Few at 3,000' AGL
  • Broken at 4,000' AGL

Mar-24@
18:00 UTC

Mar-24 @ 18:00 UTC

Mar-24@
21:00 UTC

Mar-24 @ 21:00 UTC

PROB40 2418/2421 2000 SHRA BR BKN004

Probable - 40% Likelihood

Probable - 40% Likelihood during this time.

Conditions
Rain, Mist
Cloud Levels
  • Broken at 400' AGL